Time;durP1;ratioP1;P1;durP2;ratioP2;P2;SDS_P1;SDS_P2;PMS_P1;PMS_P2;Temp;Humidity;BMP_temperature;BMP_pressure;BME280_temperature;BME280_humidity;BME280_pressure;Samples;Min_cycle;Max_cycle;Signal;HPM_P1;HPM_P2
2023/06/21 00:00:15;;;;;;;18.63;16.63;;;;;;;20.22;100.00;100217.97;5001743;28;20045;-88
2023/06/21 00:02:45;;;;;;;18.92;16.92;;;;;;;20.20;100.00;100216.63;5009142;28;20033;-88
2023/06/21 00:05:11;;;;;;;17.30;15.25;;;;;;;20.17;100.00;100208.91;5005885;28;20363;-87
2023/06/21 00:07:41;;;;;;;16.33;13.57;;;;;;;20.19;100.00;100217.72;5006001;28;20026;-87
2023/06/21 00:10:08;;;;;;;17.05;15.23;;;;;;;20.13;100.00;100208.66;4983228;28;20085;-87
2023/06/21 00:12:35;;;;;;;17.58;15.70;;;;;;;20.18;100.00;100207.78;4990396;28;20113;-87
2023/06/21 00:15:02;;;;;;;17.23;15.43;;;;;;;20.13;100.00;100203.09;4995607;28;20042;-86
2023/06/21 00:17:28;;;;;;;16.60;14.50;;;;;;;20.06;100.00;100197.94;4990764;28;20046;-87
2023/06/21 00:19:55;;;;;;;13.90;12.48;;;;;;;20.06;100.00;100195.16;5003331;28;20064;-85
2023/06/21 00:22:22;;;;;;;15.02;12.88;;;;;;;20.06;100.00;100203.47;4963302;28;20069;-85
2023/06/21 00:24:51;;;;;;;15.30;13.70;;;;;;;19.99;100.00;100197.44;5002086;28;20034;-84
2023/06/21 00:27:18;;;;;;;15.20;12.98;;;;;;;19.94;100.00;100194.72;4994443;28;20045;-85
2023/06/21 00:29:45;;;;;;;14.75;11.50;;;;;;;19.95;100.00;100196.38;4994545;28;20080;-85
2023/06/21 00:32:11;;;;;;;13.07;11.35;;;;;;;19.96;100.00;100206.31;4984719;28;20445;-87
2023/06/21 00:34:37;;;;;;;12.18;10.85;;;;;;;19.98;100.00;100207.69;4994211;28;20469;-87
2023/06/21 00:37:05;;;;;;;14.13;11.18;;;;;;;19.97;100.00;100210.75;4998563;28;20564;-86
2023/06/21 00:39:31;;;;;;;13.50;11.73;;;;;;;19.96;100.00;100215.47;5003141;28;20038;-86
2023/06/21 00:41:58;;;;;;;12.75;11.38;;;;;;;19.93;100.00;100218.81;4974809;28;20026;-86
2023/06/21 00:44:24;;;;;;;13.25;11.52;;;;;;;19.92;100.00;100214.41;4994977;28;20471;-85
2023/06/21 00:46:50;;;;;;;12.23;10.93;;;;;;;19.88;100.00;100210.50;5001073;28;20080;-86
2023/06/21 00:49:17;;;;;;;11.82;10.63;;;;;;;19.87;100.00;100211.63;5004226;28;20101;-85
2023/06/21 00:51:46;;;;;;;15.40;12.10;;;;;;;19.88;100.00;100206.91;5004431;28;20034;-85
2023/06/21 00:54:16;;;;;;;15.45;11.70;;;;;;;19.86;100.00;100204.44;4993772;28;20117;-84
2023/06/21 00:56:43;;;;;;;14.70;11.55;;;;;;;19.84;100.00;100201.97;4990415;28;20069;-85
2023/06/21 00:59:10;;;;;;;14.93;12.00;;;;;;;19.80;100.00;100195.38;4994255;28;20097;-84
2023/06/21 01:01:37;;;;;;;14.07;11.52;;;;;;;19.78;100.00;100194.00;4982494;28;20046;-84
2023/06/21 01:04:10;;;;;;;12.25;10.95;;;;;;;19.72;100.00;100200.69;4989121;28;20033;-85
2023/06/21 01:07:07;;;;;;;14.90;11.98;;;;;;;19.71;100.00;100204.59;4989236;28;20038;-87
2023/06/21 01:09:40;;;;;;;12.35;11.05;;;;;;;19.70;100.00;100198.19;4985029;28;21047;-85
2023/06/21 01:12:28;;;;;;;12.60;11.02;;;20.70;99.90;;;19.74;100.00;100204.00;4997115;28;20033;-87
2023/06/21 01:15:17;;;;;;;11.73;10.25;;;20.10;99.90;;;19.70;100.00;100203.75;4981804;28;20121;-84
2023/06/21 01:17:51;;;;;;;11.77;9.90;;;19.40;99.90;;;19.71;100.00;100229.47;5003628;28;20061;-84
2023/06/21 01:20:28;;;;;;;11.73;9.82;;;;;;;19.76;100.00;100244.13;4988432;28;20100;-86
2023/06/21 01:23:26;;;;;;;13.65;10.68;;;;;;;19.66;100.00;100230.34;4998011;28;20080;-86
2023/06/21 01:26:22;;;;;;;11.95;10.65;;;;;;;19.62;100.00;100235.59;5005383;28;20088;-85
2023/06/21 01:29:11;;;;;;;12.10;10.27;;;;;;;19.56;100.00;100222.94;5003156;28;20061;-86
2023/06/21 01:31:42;;;;;;;15.40;10.98;;;19.40;99.90;;;19.48;100.00;100207.78;5006484;28;20053;-84
2023/06/21 01:34:13;;;;;;;12.88;10.48;;;;;;;19.54;100.00;100211.34;4991100;28;20034;-84
2023/06/21 01:36:39;;;;;;;14.73;11.27;;;19.30;99.90;;;19.48;100.00;100201.44;4986707;28;20100;-86
2023/06/21 01:39:09;;;;;;;13.33;10.27;;;;;;;19.55;100.00;100218.50;4990388;28;20042;-85
2023/06/21 01:41:41;;;;;;;13.02;10.68;;;19.30;99.90;;;19.48;100.00;100209.72;5002284;28;20045;-88
2023/06/21 01:44:09;;;;;;;12.63;11.30;;;;;;;19.55;100.00;100226.81;5002728;28;20417;-85
2023/06/21 01:46:36;;;;;;;14.50;10.65;;;;;;;19.53;100.00;100218.81;5005928;28;20441;-86
2023/06/21 01:49:06;;;;;;;11.88;9.80;;;;;;;19.51;100.00;100223.81;5001604;28;20132;-85
2023/06/21 01:51:37;;;;;;;13.60;9.50;;;;;;;19.46;100.00;100223.84;4984633;28;20045;-85
2023/06/21 01:54:04;;;;;;;15.27;9.90;;;;;;;19.48;100.00;100231.84;4987716;28;20030;-83
2023/06/21 01:56:31;;;;;;;12.98;9.75;;;;;;;19.49;100.00;100236.28;5012144;28;20117;-86
2023/06/21 01:58:57;;;;;;;11.18;9.45;;;;;;;19.49;100.00;100236.28;4991216;28;20049;-86
2023/06/21 02:01:26;;;;;;;13.43;9.93;;;;;;;19.46;100.00;100242.38;4961940;28;20390;-85
2023/06/21 02:03:56;;;;;;;13.48;9.80;;;;;;;19.47;100.00;100255.91;5013296;28;20044;-87
2023/06/21 02:06:30;;;;;;;12.05;8.85;;;19.20;99.90;;;19.45;100.00;100247.06;5018068;28;20434;-86
2023/06/21 02:08:59;;;;;;;13.15;9.82;;;19.00;99.90;;;19.26;100.00;100235.84;5015237;28;20057;-87
2023/06/21 02:11:27;;;;;;;13.25;9.25;;;18.90;99.90;;;19.21;100.00;100238.66;4977265;28;20124;-86
2023/06/21 02:13:52;;;;;;;12.13;9.48;;;18.90;99.90;;;19.18;100.00;100251.09;4997066;28;20473;-86
2023/06/21 02:16:30;;;;;;;12.40;8.77;;;18.80;99.90;;;19.01;100.00;100237.63;4996945;28;20042;-87
2023/06/21 02:18:59;;;;;;;11.15;8.95;;;18.80;99.90;;;19.03;100.00;100259.47;4974584;28;20041;-86
2023/06/21 02:21:25;;;;;;;14.27;10.10;;;18.70;99.90;;;19.09;100.00;100284.03;5002508;28;20117;-86
2023/06/21 02:23:51;;;;;;;11.98;9.18;;;18.70;99.90;;;18.93;100.00;100277.72;4989240;28;20038;-86
2023/06/21 02:26:18;;;;;;;12.35;8.93;;;18.60;99.90;;;19.06;100.00;100298.41;4986709;28;20034;-87
2023/06/21 02:28:45;;;;;;;13.35;9.07;;;18.70;99.90;;;18.97;100.00;100283.50;5006101;28;20034;-87
2023/06/21 02:31:11;;;;;;;;;;;18.60;99.90;;;18.87;100.00;100266.97;5012382;28;20034;-87
2023/06/21 02:33:39;;;;;;;13.13;9.05;;;18.60;99.90;;;18.96;100.00;100292.91;5005126;28;19967;-86
2023/06/21 02:36:05;;;;;;;15.27;9.90;;;18.50;99.90;;;18.94;100.00;100301.47;5004276;28;20030;-86
2023/06/21 02:38:34;;;;;;;12.60;9.55;;;18.50;99.90;;;18.92;100.00;100302.88;4983288;28;20121;-86
2023/06/21 02:40:59;;;;;;;14.07;9.52;;;18.40;99.90;;;18.82;100.00;100293.50;5002842;28;20069;-83
2023/06/21 02:43:25;;;;;;;11.25;8.48;;;18.40;99.90;;;18.83;100.00;100309.00;4983325;28;20372;-83
2023/06/21 02:45:52;;;;;;;12.95;10.07;;;18.40;99.90;;;18.74;100.00;100301.56;5000861;28;20129;-83
2023/06/21 02:48:19;;;;;;;;;;;18.30;99.90;;;18.75;100.00;100305.97;4996228;28;20065;-82
2023/06/21 02:50:44;;;;;;;15.02;9.57;;;18.30;99.90;;;18.70;100.00;100304.03;4996295;28;19969;-82
2023/06/21 02:53:10;;;;;;;15.63;10.55;;;18.30;99.90;;;18.34;100.00;100249.69;4995615;28;20052;-81
2023/06/21 02:55:37;;;;;;;12.40;9.98;;;18.30;99.90;;;18.64;100.00;100285.84;5000357;28;20390;-83
2023/06/21 02:58:03;;;;;;;14.65;10.85;;;18.20;99.90;;;18.74;100.00;100296.84;5007537;28;20038;-82
2023/06/21 03:00:31;;;;;;;14.98;10.40;;;18.30;99.90;;;18.72;100.00;100301.81;4999261;28;20498;-82
2023/06/21 03:03:00;;;;;;;;;;;18.30;99.90;;;18.79;100.00;100304.31;4990098;28;20131;-82
2023/06/21 03:05:30;;;;;;;15.07;12.52;;;18.40;99.90;;;18.93;100.00;100294.28;5007690;28;19928;-82
2023/06/21 03:07:57;;;;;;;15.90;13.63;;;18.50;99.90;;;19.04;100.00;100300.66;4992248;28;20133;-82
2023/06/21 03:10:23;;;;;;;16.52;13.23;;;18.60;99.90;;;19.12;100.00;100307.53;5003759;28;20039;-82
2023/06/21 03:12:49;;;;;;;17.70;14.43;;;18.70;99.90;;;19.30;100.00;100306.06;5005424;28;20482;-83
2023/06/21 03:15:19;;;;;;;16.25;14.15;;;;;;;19.39;100.00;100334.81;4980133;28;20054;-82
2023/06/21 03:17:45;;;;;;;17.63;14.85;;;18.80;99.90;;;19.45;100.00;100343.06;4988006;28;20435;-82
2023/06/21 03:20:12;;;;;;;19.83;14.90;;;;;;;19.47;100.00;100365.75;4977839;28;20048;-83
2023/06/21 03:22:41;;;;;;;19.45;15.25;;;;;;;19.54;100.00;100380.09;4986044;28;20050;-81
2023/06/21 03:25:09;;;;;;;17.98;14.40;;;;;;;19.66;100.00;100397.19;4979496;28;20030;-81
2023/06/21 03:27:36;;;;;;;17.30;15.00;;;;;;;19.65;100.00;100386.41;4991980;28;20398;-83
2023/06/21 03:30:10;;;;;;;18.17;14.15;;;;;;;19.70;100.00;100402.97;4989985;28;20536;-82
2023/06/21 03:32:37;;;;;;;16.70;14.55;;;;;;;19.79;100.00;100415.13;4984114;28;20495;-83
2023/06/21 03:35:04;;;;;;;19.23;15.40;;;;;;;19.77;100.00;100422.88;4993879;28;20043;-83
2023/06/21 03:37:30;;;;;;;17.92;15.30;;;;;;;19.75;100.00;100424.25;4975044;28;20041;-82
2023/06/21 03:39:57;;;;;;;18.05;14.48;;;;;;;19.75;100.00;100430.59;4974215;28;20066;-83
2023/06/21 03:42:23;;;;;;;19.85;14.70;;;;;;;19.76;100.00;100440.59;4986989;28;20034;-83
2023/06/21 03:44:49;;;;;;;19.88;14.95;;;;;;;19.67;100.00;100437.59;4990742;28;20027;-82
2023/06/21 03:47:16;;;;;;;18.52;15.43;;;;;;;19.66;100.00;100433.16;4981545;28;20117;-82
2023/06/21 03:49:45;;;;;;;18.92;15.15;;;;;;;19.55;100.00;100429.59;4990148;28;20092;-82
2023/06/21 03:52:12;;;;;;;18.50;14.85;;;;;;;19.70;100.00;100430.63;4983468;28;20109;-83
2023/06/21 03:54:38;;;;;;;20.20;14.98;;;;;;;19.71;100.00;100448.09;4989522;28;20501;-83
2023/06/21 03:57:05;;;;;;;18.02;14.80;;;;;;;19.67;100.00;100465.25;4977548;28;20031;-83
2023/06/21 03:59:31;;;;;;;19.40;14.90;;;;;;;19.72;100.00;100475.47;4972141;28;20401;-82
2023/06/21 04:01:57;;;;;;;19.42;14.98;;;;;;;19.71;100.00;100475.75;4999369;28;20388;-82
2023/06/21 04:04:24;;;;;;;17.83;14.05;;;;;;;19.76;100.00;100484.88;4986860;28;20034;-84
2023/06/21 04:06:51;;;;;;;18.42;14.68;;;;;;;19.84;100.00;100486.19;4980314;28;20518;-83
2023/06/21 04:09:18;;;;;;;19.75;15.40;;;;;;;19.80;100.00;100496.19;4985761;28;20049;-83
2023/06/21 04:11:44;;;;;;;19.45;14.77;;;;;;;19.95;100.00;100518.31;4991720;28;20030;-82
2023/06/21 04:14:11;;;;;;;17.65;14.13;;;;;;;19.98;100.00;100523.28;4975977;28;20082;-82
2023/06/21 04:16:39;;;;;;;17.48;14.10;;;;;;;20.12;100.00;100529.03;4987791;28;20039;-82
2023/06/21 04:19:05;;;;;;;15.27;13.00;;;;;;;20.30;100.00;100545.28;5001413;28;20035;-84
2023/06/21 04:21:31;;;;;;;16.00;13.43;;;;;;;20.37;100.00;100548.56;4994444;28;20045;-84
2023/06/21 04:23:58;;;;;;;17.35;13.13;;;;;;;20.43;100.00;100550.22;5004733;28;20057;-84
2023/06/21 04:26:24;;;;;;;15.80;12.55;;;;;;;20.51;100.00;100552.38;4978381;28;20042;-83
2023/06/21 04:28:51;;;;;;;15.30;12.63;;;;;;;20.46;100.00;100555.19;4956493;28;20077;-84
2023/06/21 04:31:17;;;;;;;14.23;12.38;;;;;;;20.47;100.00;100556.84;4987046;28;20136;-84
2023/06/21 04:33:43;;;;;;;14.60;11.60;;;;;;;20.48;100.00;100564.03;4980574;28;20053;-83
2023/06/21 04:36:10;;;;;;;13.88;11.73;;;;;;;20.50;100.00;100575.66;4980150;28;20105;-83
2023/06/21 04:38:37;;;;;;;14.50;11.45;;;;;;;20.51;100.00;100584.78;4991675;28;20129;-83
2023/06/21 04:41:03;;;;;;;14.30;11.27;;;;;;;20.53;100.00;100593.63;4982833;28;20493;-84
2023/06/21 04:43:29;;;;;;;13.50;10.43;;;;;;;20.59;100.00;100598.06;4978415;28;20302;-82
2023/06/21 04:45:55;;;;;;;11.27;9.70;;;;;;;20.62;100.00;100605.78;4980888;28;20390;-85
2023/06/21 04:48:24;;;;;;;12.63;9.77;;;;;;;20.73;100.00;100609.34;4984128;28;20049;-84
2023/06/21 04:50:50;;;;;;;11.73;9.02;;;;;;;20.78;100.00;100612.06;4985490;28;20410;-85
2023/06/21 04:53:16;;;;;;;11.63;9.63;;;;;;;20.83;100.00;100614.81;4989434;28;20035;-85
2023/06/21 04:55:43;;;;;;;11.98;9.65;;;;;;;20.78;100.00;100614.00;4983386;28;20463;-83
2023/06/21 04:58:09;;;;;;;11.05;8.95;;;;;;;20.81;100.00;100614.28;4990021;28;20121;-83
2023/06/21 05:00:36;;;;;;;11.47;8.80;;;;;;;20.91;100.00;100627.25;4987039;28;20143;-83
2023/06/21 05:03:03;;;;;;;9.60;8.33;;;;;;;20.94;100.00;100628.63;4986530;28;20042;-84
2023/06/21 05:05:29;;;;;;;11.70;8.30;;;;;;;21.00;100.00;100637.75;4976584;28;20039;-84
2023/06/21 05:07:55;;;;;;;9.90;7.40;;;;;;;21.08;100.00;100640.72;4990759;28;20083;-80
2023/06/21 05:10:22;;;;;;;10.55;7.80;;;;;;;21.17;100.00;100640.09;4989545;28;20053;-78
2023/06/21 05:12:48;;;;;;;11.17;7.43;;;;;;;21.22;100.00;100637.31;4988902;28;20049;-79
2023/06/21 05:15:14;;;;;;;8.90;6.53;;;;;;;21.32;100.00;100634.47;4998656;28;20539;-79
2023/06/21 05:17:41;;;;;;;10.73;7.40;;;;;;;21.39;100.00;100643.25;4998362;28;20121;-80
2023/06/21 05:20:08;;;;;;;9.77;7.07;;;;;;;21.44;100.00;100650.72;4999435;28;20061;-82
2023/06/21 05:22:34;;;;;;;;;;;;;;;21.55;100.00;100657.84;4997844;28;20045;-81
2023/06/21 05:25:02;;;;;;;10.15;6.43;;;;;;;21.57;100.00;100652.00;4999441;28;19921;-80
2023/06/21 05:27:28;;;;;;;7.72;6.10;;;;;;;21.66;100.00;100650.28;5004746;28;20045;-80
2023/06/21 05:29:54;;;;;;;7.35;6.07;;;;;;;21.67;100.00;100653.91;4992576;28;20029;-81
2023/06/21 05:32:21;;;;;;;7.57;6.00;;;;;;;21.70;100.00;100659.66;4995192;28;20133;-80
2023/06/21 05:34:47;;;;;;;8.68;5.97;;;;;;;21.78;100.00;100657.41;4996496;28;20130;-82
2023/06/21 05:37:13;;;;;;;9.20;5.82;;;;;;;21.82;100.00;100658.47;5002633;28;20061;-84
2023/06/21 05:39:39;;;;;;;12.70;6.20;;;;;;;21.42;100.00;100661.28;5004939;28;20025;-89
2023/06/21 05:42:05;;;;;;;7.95;5.10;;;;;;;21.58;100.00;100662.00;5000372;28;20042;-91
2023/06/21 05:44:31;;;;;;;7.43;5.28;;;;;;;21.63;100.00;100664.72;4987154;28;20038;-82
2023/06/21 05:46:57;;;;;;;6.80;5.10;;;;;;;21.65;100.00;100668.06;4993099;28;20500;-82
2023/06/21 05:49:24;;;;;;;7.25;5.60;;;;;;;21.70;100.00;100669.97;4988651;28;20037;-84
2023/06/21 05:51:50;;;;;;;6.63;4.90;;;;;;;22.12;100.00;100681.50;5008524;28;20038;-83
2023/06/21 05:54:16;;;;;;;8.75;4.97;;;;;;;22.10;100.00;100676.22;5002746;28;20041;-85
2023/06/21 05:56:42;;;;;;;6.95;5.10;;;;;;;22.08;100.00;100677.66;4991527;28;20040;-85
2023/06/21 05:59:08;;;;;;;7.28;5.70;;;;;;;22.15;100.00;100680.91;4990078;28;20078;-86
2023/06/21 06:01:34;;;;;;;8.18;5.40;;;;;;;22.03;100.00;100689.63;5001806;28;20045;-83
2023/06/21 06:04:00;;;;;;;7.40;5.35;;;;;;;21.92;100.00;100693.66;4979606;28;20110;-89
2023/06/21 06:06:35;;;;;;;7.05;5.00;;;;;;;22.23;100.00;100687.75;5003156;28;20038;-85
2023/06/21 06:09:02;;;;;;;7.20;5.40;;;;;;;22.37;100.00;100690.66;5005110;28;20092;-87
2023/06/21 06:11:28;;;;;;;8.93;5.53;;;;;;;22.23;100.00;100694.13;5009206;28;20042;-86
2023/06/21 06:13:54;;;;;;;7.53;5.22;;;;;;;22.41;100.00;100684.22;5005232;28;20034;-85
2023/06/21 06:16:20;;;;;;;6.47;5.53;;;;;;;22.31;100.00;100698.22;4996619;28;20118;-84
2023/06/21 06:18:46;;;;;;;7.10;5.35;;;;;;;22.36;100.00;100697.34;4981834;28;20065;-86
2023/06/21 06:21:14;;;;;;;7.43;4.90;;;;;;;22.63;100.00;100705.09;5000057;28;20038;-86
2023/06/21 06:23:41;;;;;;;7.30;5.30;;;;;;;22.94;100.00;100698.31;4998361;28;20073;-85
2023/06/21 06:26:07;;;;;;;6.68;5.18;;;;;;;23.08;100.00;100702.03;5000816;28;20041;-84
2023/06/21 06:28:33;;;;;;;7.97;5.18;;;;;;;23.05;100.00;100710.94;5005314;28;20033;-88
2023/06/21 06:30:59;;;;;;;6.18;4.97;;;;;;;23.03;100.00;100704.84;4988149;28;20031;-82
2023/06/21 06:33:25;;;;;;;6.32;4.88;;;;;;;23.09;100.00;100702.84;4998611;28;20031;-83
2023/06/21 06:35:52;;;;;;;6.65;5.10;;;;;;;23.24;100.00;100710.97;4996742;28;20045;-86
2023/06/21 06:38:18;;;;;;;9.27;4.90;;;;;;;23.20;100.00;100711.84;5007793;28;20099;-80
2023/06/21 06:40:44;;;;;;;7.15;5.10;;;;;;;23.26;100.00;100711.53;4995012;28;20038;-84
2023/06/21 06:43:10;;;;;;;8.85;5.20;;;;;;;23.03;100.00;100709.59;5006544;28;20397;-79
2023/06/21 06:45:36;;;;;;;8.52;5.60;;;;;;;23.42;100.00;100708.47;4985464;28;20133;-85
2023/06/21 06:48:02;;;;;;;6.68;5.30;;;;;;;23.69;100.00;100704.16;5008889;28;20038;-81
2023/06/21 06:50:28;;;;;;;6.80;5.10;;;;;;;23.76;100.00;100703.75;5009593;28;20080;-85
2023/06/21 06:52:54;;;;;;;8.73;5.47;;;;;;;23.52;100.00;100710.28;4979993;28;20027;-85
2023/06/21 06:55:20;;;;;;;8.25;5.07;;;;;;;23.54;100.00;100714.44;4986037;28;20041;-83
2023/06/21 06:57:46;;;;;;;6.78;5.10;;;;;;;23.68;100.00;100721.97;5005990;28;20100;-88
2023/06/21 07:00:14;;;;;;;5.97;4.88;;;;;;;23.80;100.00;100724.28;4998776;28;20057;-83
2023/06/21 07:02:40;;;;;;;5.68;4.45;;;;;;;23.86;100.00;100714.72;5003664;28;20397;-84
2023/06/21 07:05:07;;;;;;;6.50;4.10;;;;;;;23.57;100.00;100726.88;5002141;28;20031;-85
2023/06/21 07:07:33;;;;;;;5.75;4.13;;;;;;;23.87;100.00;100727.53;5011905;28;20046;-83
2023/06/21 07:09:59;;;;;;;5.18;4.25;;;;;;;23.99;100.00;100721.44;5007687;28;20085;-82
2023/06/21 07:12:25;;;;;;;5.03;4.20;;;;;;;24.05;100.00;100716.66;4996574;28;20049;-81
2023/06/21 07:14:53;;;;;;;7.07;4.55;;;;;;;24.05;100.00;100717.50;4985828;28;20110;-80
2023/06/21 07:17:21;;;;;;;6.65;4.15;;;;;;;24.09;100.00;100726.88;4995566;28;20549;-81
2023/06/21 07:19:47;;;;;;;7.57;4.40;;;;;;;23.60;100.00;100728.25;5002449;28;20833;-83
2023/06/21 07:22:13;;;;;;;7.75;4.47;;;;;;;23.64;100.00;100729.28;4984995;28;20038;-81
2023/06/21 07:24:39;;;;;;;6.35;4.10;;;;;;;23.57;100.00;100738.03;5003595;28;20042;-82
2023/06/21 07:27:05;;;;;;;7.30;4.25;;;;;;;23.59;100.00;100740.53;5007385;28;20022;-84
2023/06/21 07:29:31;;;;;;;6.10;4.10;;;;;;;23.33;100.00;100738.94;4991332;28;20034;-87
2023/06/21 07:31:57;;;;;;;6.07;4.05;;;;;;;23.51;100.00;100744.81;4990161;28;20394;-85
2023/06/21 07:34:25;;;;;;;5.97;4.18;;;;;;;23.79;100.00;100747.72;5001799;28;20030;-85
2023/06/21 07:36:51;;;;;;;6.88;3.92;;;;;;;23.83;100.00;100746.81;4995268;28;20552;-83
2023/06/21 07:39:17;;;;;;;6.82;4.30;;;;;;;23.98;100.00;100748.50;4985559;28;20041;-82
2023/06/21 07:41:44;;;;;;;7.60;4.22;;;;;;;24.28;100.00;100753.88;5000884;28;20026;-83
2023/06/21 07:44:10;;;;;;;8.13;4.45;;;;;;;24.21;100.00;100754.25;4999853;28;20034;-80
2023/06/21 07:46:36;;;;;;;6.07;4.38;;;;;;;24.32;100.00;100751.25;4995033;28;20045;-90
2023/06/21 07:49:02;;;;;;;9.73;4.50;;;;;;;24.39;100.00;100754.47;4994000;28;20046;-89
2023/06/21 07:51:28;;;;;;;7.80;4.65;;;;;;;24.59;100.00;100746.84;4999729;28;20045;-86
2023/06/21 07:53:54;;;;;;;7.75;5.00;;;;;;;24.48;100.00;100757.38;4992283;28;20502;-84
2023/06/21 07:56:21;;;;;;;6.88;4.38;;;;;;;24.70;100.00;100753.88;5010371;28;20097;-86
2023/06/21 07:58:47;;;;;;;5.78;4.50;;;;;;;25.03;100.00;100762.13;5010654;28;20041;-84
2023/06/21 08:01:14;;;;;;;5.85;4.88;;;;;;;24.92;100.00;100757.91;4998395;28;20132;-86
2023/06/21 08:03:40;;;;;;;5.05;4.28;;;;;;;25.09;100.00;100769.25;5006220;28;20033;-84
2023/06/21 08:06:07;;;;;;;10.23;4.77;;;;;;;25.43;100.00;100773.50;5002004;28;20038;-86
2023/06/21 08:08:33;;;;;;;6.93;4.75;;;;;;;25.62;100.00;100760.56;5001417;28;20038;-82
2023/06/21 08:10:59;;;;;;;7.22;4.63;;;;;;;25.90;97.93;100755.66;4985664;28;20042;-85
2023/06/21 08:13:26;;;;;;;5.95;4.80;;;;;;;25.83;97.12;100758.09;4997060;28;20042;-89
2023/06/21 08:15:52;;;;;;;8.02;5.10;;;;;;;26.07;99.06;100754.13;5005600;28;20069;-85
2023/06/21 08:18:18;;;;;;;7.03;5.28;;;;;;;25.80;100.00;100751.16;5004755;28;20046;-85
2023/06/21 08:20:44;;;;;;;7.00;4.95;;;;;;;25.97;99.25;100753.22;4998062;28;20038;-83
2023/06/21 08:23:10;;;;;;;13.85;5.75;;;;;;;26.30;96.62;100751.31;4994721;28;20030;-82
2023/06/21 08:25:36;;;;;;;7.43;5.30;;;;;;;25.55;94.30;100738.66;4999450;28;20030;-81
2023/06/21 08:28:03;;;;;;;7.50;4.60;;;;;;;26.12;93.96;100751.19;5001030;28;20053;-82
2023/06/21 08:30:30;;;;;;;7.72;5.10;;;;;;;25.97;93.55;100742.06;4997932;28;20048;-82
2023/06/21 08:32:56;;;;;;;5.97;4.80;;;;;;;26.07;90.11;100732.56;4991755;28;20434;-82
2023/06/21 08:35:22;;;;;;;7.07;4.70;;;;;;;26.11;86.65;100739.16;4990765;28;20125;-81
2023/06/21 08:37:58;;;;;;;5.80;4.97;;;;;;;26.64;87.44;100739.44;5004802;28;20125;-83
2023/06/21 08:40:32;;;;;;;7.07;4.43;;;;;;;26.82;80.33;100731.94;4995175;28;20042;-80
2023/06/21 08:42:59;;;;;;;7.07;4.82;;;;;;;26.73;82.42;100753.44;5003461;28;20339;-78
2023/06/21 08:45:26;;;;;;;7.18;4.78;;;;;;;27.05;81.46;100743.00;5004481;28;20033;-82
2023/06/21 08:47:52;;;;;;;6.13;4.78;;;;;;;27.02;81.78;100746.47;5002647;28;20084;-81
2023/06/21 08:50:19;;;;;;;7.78;4.90;;;;;;;27.01;84.39;100747.63;5006579;28;20053;-81
2023/06/21 08:52:48;;;;;;;6.60;4.60;;;;;;;26.80;80.31;100748.22;4999641;28;20045;-80
2023/06/21 08:55:16;;;;;;;6.95;4.70;;;;;;;27.17;76.99;100752.75;5009917;28;20380;-81
2023/06/21 08:57:56;;;;;;;6.00;4.53;;;;;;;26.90;76.11;100765.88;5006772;28;20050;-82
2023/06/21 09:00:26;;;;;;;5.25;4.38;;;;;;;27.10;76.75;100764.44;5000070;28;20038;-81
2023/06/21 09:03:09;;;;;;;5.85;4.60;;;;;;;27.24;76.40;100773.53;5007087;28;20034;-81
2023/06/21 09:05:49;;;;;;;6.43;4.40;;;;;;;26.90;75.25;100771.47;4999686;28;20049;-85
2023/06/21 09:08:15;;;;;;;5.63;4.20;;;;;;;27.25;72.68;100769.56;4999020;28;20038;-82
2023/06/21 09:10:43;;;;;;;7.07;4.20;;;;;;;27.33;71.63;100779.13;4999628;28;20061;-77
2023/06/21 09:13:11;;;;;;;6.47;3.72;;;;;;;27.26;61.51;100756.38;4999528;28;20121;-80
2023/06/21 09:15:38;;;;;;;6.40;3.95;;;;;;;27.08;60.99;100764.78;4994339;28;20057;-82
2023/06/21 09:18:05;;;;;;;6.00;3.90;;;;;;;27.10;62.21;100768.06;4981323;28;20513;-89
2023/06/21 09:20:32;;;;;;;4.65;3.60;;;;;;;27.01;62.79;100763.59;4974873;28;20045;-85
2023/06/21 09:22:59;;;;;;;5.07;3.83;;;;;;;26.81;62.04;100768.63;4973065;28;20119;-83
2023/06/21 09:25:27;;;;;;;5.82;4.00;;;;;;;27.11;62.20;100761.31;4984725;28;20074;-86
2023/06/21 09:27:54;;;;;;;7.95;4.40;;;;;;;27.35;61.36;100765.63;4984629;28;20093;-85
2023/06/21 09:30:21;;;;;;;5.75;4.22;;;;;;;27.74;61.52;100771.41;4981424;28;20042;-87
2023/06/21 09:32:48;;;;;;;7.40;4.75;;;;;;;27.05;65.14;100771.00;4987336;28;20034;-86
2023/06/21 09:35:14;;;;;;;8.37;4.47;;;;;;;26.95;66.68;100783.34;4984710;28;20053;-82
2023/06/21 09:37:40;;;;;;;6.68;4.30;;;;;;;27.59;66.29;100781.16;4981703;28;20289;-82
2023/06/21 09:40:07;;;;;;;5.15;4.18;;;;;;;27.80;59.54;100772.88;4974346;28;20031;-82
2023/06/21 09:42:53;;;;;;;7.18;4.75;;;;;;;27.77;59.14;100783.94;4982249;28;20049;-83
2023/06/21 09:45:19;;;;;;;7.70;4.50;;;;;;;28.10;57.70;100774.97;4980012;28;20039;-79
2023/06/21 09:47:46;;;;;;;8.07;4.38;;;;;;;28.08;56.85;100772.50;4972942;28;20041;-80
2023/06/21 09:50:12;;;;;;;7.00;4.32;;;;;;;27.83;60.75;100771.38;4980398;28;20038;-84
2023/06/21 09:52:43;;;;;;;6.03;4.85;;;;;;;28.00;59.19;100776.16;4984162;28;20473;-80
2023/06/21 09:55:14;;;;;;;6.00;4.68;;;;;;;27.90;59.92;100784.91;4995384;28;20111;-80
2023/06/21 09:57:40;;;;;;;6.35;4.78;;;;;;;28.58;57.40;100778.66;4977948;28;20043;-80
2023/06/21 10:00:07;;;;;;;10.27;4.82;;;;;;;29.08;58.45;100793.91;4988207;28;20113;-79
2023/06/21 10:02:42;;;;;;;6.57;4.50;;;;;;;29.52;54.66;100781.59;4981015;28;20115;-83
2023/06/21 10:05:18;;;;;;;7.63;4.88;;;;;;;29.85;53.20;100784.44;4980224;28;20110;-81
2023/06/21 10:07:45;;;;;;;8.20;4.93;;;;;;;28.87;52.77;100787.44;4985193;28;20508;-81
2023/06/21 10:10:12;;;;;;;6.78;5.10;;;;;;;27.66;55.73;100798.28;4988084;28;20041;-77
2023/06/21 10:12:51;;;;;;;7.35;5.85;;;;;;;27.31;58.23;100808.59;4981221;28;20031;-80
2023/06/21 10:15:18;;;;;;;8.32;6.05;;;;;;;27.54;59.56;100812.94;4976641;28;20505;-81
2023/06/21 10:17:46;;;;;;;9.10;6.25;;;;;;;27.14;60.74;100808.25;5002549;28;20118;-81
2023/06/21 10:20:17;;;;;;;7.47;6.18;;;;;;;26.34;63.64;100809.06;4995380;28;20071;-80
2023/06/21 10:22:51;;;;;;;8.43;6.95;;;;;;;25.96;68.13;100810.25;4999211;28;20041;-79
2023/06/21 10:25:20;;;;;;;8.30;6.30;;;;;;;27.79;60.76;100799.25;5000963;28;20049;-78
2023/06/21 10:27:49;;;;;;;10.00;6.82;;;;;;;27.90;57.22;100793.31;4994456;28;20045;-80
2023/06/21 10:30:21;;;;;;;10.65;6.57;;;;;;;27.70;59.15;100807.66;5002463;28;20120;-79
2023/06/21 10:32:49;;;;;;;10.98;7.45;;;;;;;28.11;57.33;100807.44;5005517;28;20050;-80
2023/06/21 10:35:17;;;;;;;9.60;8.38;;;;;;;26.68;62.01;100818.78;5004631;28;20049;-77
2023/06/21 10:38:08;;;;;;;10.25;8.40;;;;;;;26.30;64.08;100819.22;5001834;28;20041;-77
2023/06/21 10:40:35;;;;;;;8.80;7.90;;;;;;;27.13;62.31;100820.59;4993460;28;20555;-78
2023/06/21 10:43:02;;;;;;;11.82;9.20;;;;;;;26.07;68.70;100824.81;5003353;28;20037;-76
2023/06/21 10:45:30;;;;;;;10.27;9.25;;;;;;;26.98;67.15;100826.63;5005435;28;20038;-77
2023/06/21 10:47:57;;;;;;;11.57;9.45;;;;;;;26.68;65.10;100821.59;4996278;28;20050;-77
2023/06/21 10:50:24;;;;;;;10.97;9.67;;;;;;;26.76;65.99;100831.13;5001266;28;20064;-81
2023/06/21 10:53:01;;;;;;;9.80;8.80;;;;;;;27.73;64.61;100824.97;5000133;28;20288;-77
2023/06/21 10:55:28;;;;;;;10.73;9.53;;;;;;;27.37;63.10;100821.28;5010832;28;20429;-78
2023/06/21 10:57:55;;;;;;;10.85;9.75;;;;;;;28.12;58.85;100817.53;4999352;28;20030;-76
2023/06/21 11:00:25;;;;;;;10.65;9.40;;;;;;;29.99;54.83;100811.41;4995617;28;20031;-79
2023/06/21 11:02:53;;;;;;;8.93;7.95;;;;;;;31.19;49.00;100807.00;4981856;28;20034;-76
2023/06/21 11:05:23;;;;;;;;;;;;;;;29.02;52.50;100830.94;5004523;28;20185;-83
2023/06/21 11:08:04;;;;;;;9.57;8.55;;;;;;;28.45;55.56;100825.41;5007592;28;19921;-77